Time;durP1;ratioP1;P1;durP2;ratioP2;P2;SDS_P1;SDS_P2;PMS_P1;PMS_P2;Temp;Humidity;BMP_temperature;BMP_pressure;BME280_temperature;BME280_humidity;BME280_pressure;Samples;Min_cycle;Max_cycle;Signal;HPM_P1;HPM_P2
2021/03/12 00:00:36;;;;;;;23.33;12.48;;;;;;;6.46;46.61;99595.28;5097569;28;20032;-75
2021/03/12 00:03:03;;;;;;;24.45;13.73;;;;;;;6.35;47.05;99595.00;5115559;28;20130;-76
2021/03/12 00:05:29;;;;;;;25.17;13.57;;;;;;;6.42;47.00;99596.41;5097526;28;20060;-71
2021/03/12 00:07:55;;;;;;;24.20;13.73;;;;;;;6.40;46.75;99607.09;5115687;28;20046;-71
2021/03/12 00:10:25;;;;;;;22.67;13.23;;;;;;;6.41;46.76;99603.50;5115354;28;20482;-71
2021/03/12 00:12:51;;;;;;;27.40;13.63;;;;;;;6.40;46.95;99616.81;5115813;28;20116;-72
2021/03/12 00:15:21;;;;;;;26.30;13.93;;;;;;;6.40;47.15;99615.03;5115149;28;20487;-73
2021/03/12 00:17:49;;;;;;;23.02;12.98;;;;;;;6.36;47.16;99625.84;5115295;28;20497;-73
2021/03/12 00:20:16;;;;;;;24.15;13.63;;;;;;;6.35;47.31;99640.03;5079970;28;20390;-73
2021/03/12 00:22:43;;;;;;;27.30;13.95;;;;;;;6.32;47.48;99652.50;5096979;28;20053;-74
2021/03/12 00:25:13;;;;;;;26.02;13.43;;;;;;;6.39;47.53;99662.81;5096617;28;20031;-74
2021/03/12 00:27:39;;;;;;;24.65;13.70;;;;;;;6.31;47.91;99660.53;5115219;28;20095;-74
2021/03/12 00:30:07;;;;;;;25.00;14.32;;;;;;;6.26;48.09;99670.50;5115226;28;20024;-81
2021/03/12 00:32:34;;;;;;;26.13;13.98;;;;;;;6.31;48.41;99687.03;5115100;28;20031;-74
2021/03/12 00:34:59;;;;;;;26.63;14.27;;;;;;;6.23;48.64;99692.72;5115187;28;20381;-74
2021/03/12 00:37:25;;;;;;;27.13;15.70;;;;;;;6.26;49.53;99694.34;5114708;28;20019;-74
2021/03/12 00:39:51;;;;;;;26.88;13.65;;;;;;;6.33;50.05;99706.34;5096909;28;20073;-74
2021/03/12 00:42:16;;;;;;;28.15;14.23;;;;;;;6.23;51.47;99707.75;5097055;28;20076;-71
2021/03/12 00:44:42;;;;;;;25.98;13.27;;;;;;;6.18;52.46;99707.16;5097191;28;20016;-73
2021/03/12 00:47:08;;;;;;;26.88;15.07;;;;;;;6.15;53.28;99712.56;5114417;28;20035;-73
2021/03/12 00:49:33;;;;;;;25.08;14.57;;;;;;;6.13;53.64;99709.16;5114780;28;20027;-72
2021/03/12 00:51:59;;;;;;;29.85;14.60;;;;;;;6.16;55.36;99709.84;5114426;28;20035;-72
2021/03/12 00:54:25;;;;;;;26.00;15.07;;;;;;;6.09;56.24;99697.88;5114376;28;20488;-72
2021/03/12 00:56:50;;;;;;;27.70;14.88;;;;;;;6.06;57.01;99687.41;5096508;28;20027;-73
2021/03/12 00:59:16;;;;;;;25.02;14.27;;;;;;;5.99;56.55;99688.69;5114247;28;20023;-72
2021/03/12 01:01:41;;;;;;;27.58;15.00;;;;;;;5.93;57.29;99686.31;5096428;28;20540;-73
2021/03/12 01:04:08;;;;;;;29.23;15.57;;;;;;;5.95;59.46;99685.31;5096388;28;20539;-78
2021/03/12 01:06:33;;;;;;;30.95;15.85;;;;;;;5.89;60.90;99676.81;5114350;28;20485;-73
2021/03/12 01:09:00;;;;;;;33.55;16.15;;;;;;;5.88;61.35;99675.91;5114306;28;20039;-72
2021/03/12 01:11:26;;;;;;;28.48;15.85;;;;;;;5.87;63.28;99665.41;5114007;28;20039;-72
2021/03/12 01:13:51;;;;;;;28.38;16.20;;;;;;;5.84;62.75;99661.13;5096261;28;20024;-71
2021/03/12 01:16:17;;;;;;;28.23;15.95;;;;;;;5.72;63.81;99652.03;5095975;28;20389;-72
2021/03/12 01:18:43;;;;;;;31.10;16.42;;;;;;;5.67;64.60;99656.69;5114343;28;20028;-71
2021/03/12 01:21:08;;;;;;;32.38;17.33;;;;;;;5.72;63.62;99659.97;5113938;28;20028;-78
2021/03/12 01:23:34;;;;;;;29.80;17.00;;;;;;;5.90;65.61;99670.56;5114032;28;20092;-72
2021/03/12 01:25:59;;;;;;;30.73;15.93;;;;;;;5.65;66.90;99661.19;5114125;28;20523;-73
2021/03/12 01:28:25;;;;;;;30.65;16.25;;;;;;;5.72;65.97;99665.25;5095763;28;20019;-70
2021/03/12 01:30:50;;;;;;;31.65;15.80;;;;;;;5.64;65.63;99662.13;5095874;28;20462;-71
2021/03/12 01:33:17;;;;;;;31.67;16.55;;;;;;;5.61;65.24;99649.06;5095567;28;20115;-72
2021/03/12 01:35:43;;;;;;;29.40;16.25;;;;;;;5.62;64.38;99652.56;5113884;28;20027;-71
2021/03/12 01:38:09;;;;;;;29.23;15.98;;;;;;;5.81;66.02;99665.75;5113714;28;20034;-73
2021/03/12 01:40:39;;;;;;;29.38;16.48;;;;;;;5.55;65.70;99654.66;5113849;28;20031;-72
2021/03/12 01:43:05;;;;;;;31.15;16.85;;;;;;;5.59;65.72;99656.19;5113727;28;20031;-72
2021/03/12 01:45:38;;;;;;;32.78;18.55;;;;;;;5.53;65.49;99648.59;5113472;28;20034;-71
2021/03/12 01:48:09;;;;;;;31.60;16.95;;;;;;;5.47;67.20;99657.66;5113709;28;20031;-71
2021/03/12 01:50:35;;;;;;;37.15;18.98;;;;;;;5.41;68.74;99673.00;5113606;28;20050;-71
2021/03/12 01:53:08;;;;;;;34.03;17.95;;;;;;;5.49;67.52;99660.22;5113596;28;20036;-71
2021/03/12 01:55:34;;;;;;;28.88;17.45;;;;;;;5.62;66.48;99658.72;5113245;28;20023;-71
2021/03/12 01:58:01;;;;;;;33.85;17.92;;;;;;;5.62;66.47;99649.91;5113451;28;20171;-70
2021/03/12 02:00:28;;;;;;;30.25;16.88;;;;;;;5.67;65.82;99642.59;5095255;28;20081;-71
2021/03/12 02:02:55;;;;;;;31.05;16.48;;;;;;;5.55;66.04;99659.09;5113194;28;20056;-72
2021/03/12 02:05:20;;;;;;;32.42;18.13;;;;;;;5.51;67.86;99653.09;5112174;28;20026;-73
2021/03/12 02:07:46;;;;;;;33.42;17.88;;;;;;;5.47;69.06;99636.50;5095195;28;20529;-72
2021/03/12 02:10:16;;;;;;;33.30;19.48;;;;;;;5.39;69.81;99624.56;5113243;28;20102;-74
2021/03/12 02:13:18;;;;;;;34.40;18.95;;;;;;;5.31;71.23;99618.84;5113547;28;20019;-71
2021/03/12 02:15:54;;;;;;;45.05;24.17;;;;;;;5.11;72.85;99591.53;5113356;28;20080;-74
2021/03/12 02:18:57;;;;;;;49.53;25.20;;;;;;;5.07;72.75;99616.41;5112954;28;20110;-74
2021/03/12 02:21:34;;;;;;;49.03;25.13;;;;;;;5.10;71.47;99595.13;5112920;28;20028;-74
2021/03/12 02:24:11;;;;;;;49.10;25.17;;;;;;;4.98;74.35;99598.34;5113229;28;20043;-74
2021/03/12 02:26:53;;;;;;;40.28;23.42;;;;;;;4.94;74.29;99583.59;5113151;28;20118;-74
2021/03/12 02:29:22;;;;;;;39.13;21.15;;;;;;;4.85;74.58;99568.16;5112903;28;20031;-76
2021/03/12 02:31:51;;;;;;;37.45;21.02;;;;;;;4.92;74.36;99544.91;5113347;28;20019;-76
2021/03/12 02:34:20;;;;;;;38.10;19.27;;;;;;;4.84;73.78;99558.53;5094483;28;20039;-79
2021/03/12 02:36:49;;;;;;;35.60;19.20;;;;;;;4.80;73.81;99560.44;5113200;28;20027;-70
2021/03/12 02:39:18;;;;;;;37.67;19.98;;;;;;;4.79;73.28;99558.72;5112705;28;20087;-71
2021/03/12 02:41:47;;;;;;;38.72;20.00;;;;;;;4.80;74.51;99560.44;5113341;28;20030;-71
2021/03/12 02:44:12;;;;;;;33.83;17.95;;;;;;;4.91;73.68;99554.63;5113099;28;20024;-74
2021/03/12 02:46:39;;;;;;;31.73;17.65;;;;;;;4.89;73.91;99548.56;5112676;28;20028;-71
2021/03/12 02:49:07;;;;;;;30.70;17.23;;;;;;;4.97;73.42;99543.78;5112951;28;20040;-70
2021/03/12 02:51:34;;;;;;;32.00;17.38;;;;;;;4.81;73.94;99548.94;5093741;28;20031;-69
2021/03/12 02:54:00;;;;;;;33.67;18.30;;;;;;;4.84;72.95;99546.16;5078135;28;20035;-70
2021/03/12 02:56:26;;;;;;;35.28;18.05;;;;;;;4.91;72.07;99538.78;5094408;28;20590;-70
2021/03/12 02:58:53;;;;;;;34.25;18.40;;;;;;;4.86;72.89;99538.16;5112816;28;20062;-70
2021/03/12 03:01:20;;;;;;;31.17;17.33;;;;;;;4.86;72.65;99532.88;5094205;28;20500;-70
2021/03/12 03:03:47;;;;;;;33.63;18.05;;;;;;;4.86;73.08;99536.38;5113076;28;20024;-71
2021/03/12 03:06:13;;;;;;;36.92;18.40;;;;;;;4.78;73.31;99545.59;5094891;28;20535;-72
2021/03/12 03:08:43;;;;;;;36.38;18.23;;;;;;;4.70;74.04;99537.16;5112554;28;20031;-72
2021/03/12 03:11:10;;;;;;;32.13;18.33;;;;;;;4.78;73.75;99524.47;5112798;28;20023;-72
2021/03/12 03:13:38;;;;;;;30.58;16.73;;;;;;;4.85;73.38;99526.75;5094180;28;20034;-73
2021/03/12 03:16:06;;;;;;;31.98;18.30;;;;;;;4.80;73.75;99517.31;5114234;28;20381;-73
2021/03/12 03:18:38;;;;;;;34.38;18.23;;;;;;;4.84;73.38;99519.75;5097977;28;20500;-73
2021/03/12 03:21:06;;;;;;;34.05;18.48;;;;;;;4.71;74.77;99523.88;5116600;28;20057;-73
2021/03/12 03:23:36;;;;;;;30.35;17.40;;;;;;;4.79;73.46;99520.88;5116144;28;20028;-73
2021/03/12 03:26:03;;;;;;;36.55;18.70;;;;;;;4.81;74.11;99529.59;5116655;28;20360;-72
2021/03/12 03:28:29;;;;;;;35.58;17.50;;;;;;;4.75;74.37;99546.59;5098012;28;20030;-72
2021/03/12 03:30:54;;;;;;;31.85;18.00;;;;;;;4.84;73.28;99546.16;5116440;28;20028;-74
2021/03/12 03:33:20;;;;;;;32.22;17.98;;;;;;;4.74;73.20;99550.19;5097881;28;20024;-74
2021/03/12 03:35:45;;;;;;;34.30;17.45;;;;;;;4.74;73.65;99557.25;5081121;28;20041;-74
2021/03/12 03:38:11;;;;;;;33.05;17.05;;;;;;;4.82;73.27;99561.22;5097912;28;20028;-73
2021/03/12 03:40:36;;;;;;;28.73;16.48;;;;;;;4.79;73.64;99565.81;5080752;28;20081;-74
2021/03/12 03:43:05;;;;;;;35.53;18.08;;;;;;;4.75;75.08;99582.75;5097999;28;20394;-70
2021/03/12 03:45:32;;;;;;;30.83;17.45;;;;;;;4.66;75.75;99599.88;5097426;28;20024;-70
2021/03/12 03:48:00;;;;;;;31.52;17.55;;;;;;;4.65;75.96;99578.81;5097875;28;20043;-70
2021/03/12 03:50:27;;;;;;;32.95;18.15;;;;;;;4.74;74.92;99594.25;5115656;28;20389;-70
2021/03/12 03:52:54;;;;;;;33.10;17.17;;;;;;;4.75;75.20;99606.53;5097907;28;20027;-70
2021/03/12 03:55:23;;;;;;;32.50;18.10;;;;;;;4.71;75.54;99621.63;5115466;28;20398;-74
2021/03/12 03:57:50;;;;;;;35.00;18.95;;;;;;;4.70;76.26;99632.28;5115790;28;20110;-72
2021/03/12 04:00:17;;;;;;;32.58;18.98;;;;;;;4.62;77.32;99629.13;5099224;28;20084;-71
2021/03/12 04:02:44;;;;;;;35.60;18.73;;;;;;;4.47;77.64;99644.75;5099579;28;20407;-72
2021/03/12 04:05:11;;;;;;;31.20;17.70;;;;;;;4.57;77.17;99650.47;5097570;28;20039;-70
2021/03/12 04:07:39;;;;;;;32.40;18.60;;;;;;;4.56;77.82;99652.25;5097102;28;20379;-71
2021/03/12 04:10:05;;;;;;;35.65;19.38;;;;;;;4.63;77.88;99641.41;5097512;28;20114;-72
2021/03/12 04:12:32;;;;;;;33.08;18.50;;;;;;;4.64;77.97;99627.28;5115203;28;20034;-74
2021/03/12 04:14:58;;;;;;;35.50;19.05;;;;;;;4.53;77.86;99625.13;5115403;28;20024;-74
2021/03/12 04:17:24;;;;;;;34.08;19.15;;;;;;;4.60;77.81;99632.69;5097058;28;20115;-76
2021/03/12 04:19:51;;;;;;;35.83;18.95;;;;;;;4.66;76.47;99625.44;5097374;28;20028;-70
2021/03/12 04:22:18;;;;;;;35.17;19.13;;;;;;;4.74;76.28;99631.22;5115446;28;20088;-70
2021/03/12 04:24:44;;;;;;;33.78;19.02;;;;;;;4.68;77.03;99640.28;5114897;28;20414;-70
2021/03/12 04:27:11;;;;;;;37.00;19.20;;;;;;;4.71;76.63;99621.63;5114361;28;20111;-70
2021/03/12 04:29:37;;;;;;;36.45;17.88;;;;;;;4.70;76.10;99608.50;5096968;28;20035;-70
2021/03/12 04:32:03;;;;;;;33.60;18.58;;;;;;;4.79;76.03;99627.44;5115232;28;20519;-70
2021/03/12 04:34:29;;;;;;;36.63;19.15;;;;;;;4.82;76.09;99626.41;5114824;28;20036;-70
2021/03/12 04:36:55;;;;;;;34.83;18.15;;;;;;;4.77;76.59;99631.94;5115144;28;20027;-75
2021/03/12 04:39:21;;;;;;;33.05;19.38;;;;;;;4.69;77.63;99641.13;5096525;28;20032;-78
2021/03/12 04:41:48;;;;;;;31.70;19.15;;;;;;;4.69;77.90;99642.00;5114946;28;20019;-74
2021/03/12 04:44:14;;;;;;;34.97;19.48;;;;;;;4.73;78.14;99634.78;5096932;28;20031;-74
2021/03/12 04:46:40;;;;;;;33.10;18.00;;;;;;;4.75;77.47;99635.59;5079603;28;20032;-73
2021/03/12 04:49:08;;;;;;;35.63;19.63;;;;;;;4.77;77.48;99633.72;5114829;28;20035;-74
2021/03/12 04:51:36;;;;;;;32.05;17.98;;;;;;;4.94;76.67;99625.00;5114493;28;20538;-73
2021/03/12 04:54:09;;;;;;;37.45;18.48;;;;;;;4.93;76.88;99607.44;5114717;28;20031;-73
2021/03/12 04:56:38;;;;;;;33.92;18.08;;;;;;;4.86;77.36;99617.44;5096195;28;20035;-74
2021/03/12 04:59:05;;;;;;;41.85;21.95;;;;;;;4.88;77.98;99615.56;5114494;28;20032;-71
2021/03/12 05:01:31;;;;;;;49.42;25.13;;;;;;;4.87;78.41;99600.66;5095921;28;20102;-70
2021/03/12 05:03:57;;;;;;;41.25;21.08;;;;;;;4.87;78.44;99587.44;5096122;28;20057;-72
2021/03/12 05:06:23;;;;;;;35.17;19.15;;;;;;;4.96;78.19;99617.88;5114300;28;20106;-70
2021/03/12 05:08:49;;;;;;;38.50;21.02;;;;;;;4.85;79.15;99615.72;5114141;28;20024;-70
2021/03/12 05:11:15;;;;;;;38.13;20.50;;;;;;;4.86;79.34;99617.44;5095946;28;20023;-69
2021/03/12 05:13:40;;;;;;;36.88;20.30;;;;;;;4.90;79.37;99613.72;5114072;28;20457;-69
2021/03/12 05:16:06;;;;;;;39.88;20.52;;;;;;;4.94;79.81;99625.88;5114183;28;20057;-70
2021/03/12 05:18:32;;;;;;;35.03;19.42;;;;;;;4.98;79.91;99632.72;5113764;28;20042;-70
2021/03/12 05:20:57;;;;;;;31.95;17.77;;;;;;;4.99;79.83;99641.50;5114095;28;20024;-71
2021/03/12 05:23:23;;;;;;;29.60;16.63;;;;;;;5.08;79.62;99649.00;5113942;28;20027;-70
2021/03/12 05:25:49;;;;;;;29.98;17.45;;;;;;;5.12;80.58;99651.44;5095528;28;20137;-69
2021/03/12 05:28:14;;;;;;;34.95;16.95;;;;;;;5.21;79.88;99655.44;5095680;28;20027;-71
2021/03/12 05:30:40;;;;;;;30.85;17.85;;;;;;;5.24;79.95;99670.28;5078473;28;20028;-71
2021/03/12 05:33:06;;;;;;;27.85;15.88;;;;;;;5.31;79.93;99677.88;5114076;28;20031;-71
2021/03/12 05:35:32;;;;;;;32.25;17.00;;;;;;;5.50;79.29;99680.50;5113360;28;20470;-72
2021/03/12 05:37:58;;;;;;;27.98;17.02;;;;;;;5.59;78.24;99690.59;5113569;28;20073;-71
2021/03/12 05:40:23;;;;;;;28.73;16.85;;;;;;;5.52;78.82;99697.13;5113625;28;20035;-68
2021/03/12 05:42:52;;;;;;;33.97;17.25;;;;;;;5.55;78.60;99704.06;5113463;28;20048;-70
2021/03/12 05:45:18;;;;;;;30.02;16.10;;;;;;;5.61;78.84;99701.97;5113785;28;20028;-70
2021/03/12 05:47:45;;;;;;;29.55;16.52;;;;;;;5.62;78.25;99708.97;5095568;28;20038;-70
2021/03/12 05:50:11;;;;;;;31.10;17.20;;;;;;;5.56;78.17;99703.97;5078412;28;20031;-73
2021/03/12 05:52:37;;;;;;;32.53;16.98;;;;;;;5.51;79.01;99716.59;5113248;28;20022;-71
2021/03/12 05:55:04;;;;;;;26.65;14.95;;;;;;;5.64;79.27;99728.28;5095460;28;20032;-70
2021/03/12 05:57:30;;;;;;;29.55;17.08;;;;;;;5.70;79.19;99737.72;5078291;28;20048;-70
2021/03/12 05:59:58;;;;;;;29.13;16.42;;;;;;;5.62;80.20;99740.72;5113394;28;20090;-70
2021/03/12 06:02:24;;;;;;;31.85;17.33;;;;;;;5.64;80.65;99746.81;5113051;28;20079;-75
2021/03/12 06:04:50;;;;;;;27.35;16.13;;;;;;;5.68;80.50;99758.94;5094975;28;20024;-73
2021/03/12 06:07:16;;;;;;;28.35;15.85;;;;;;;5.72;80.73;99764.97;5113279;28;20038;-71
2021/03/12 06:09:43;;;;;;;27.38;16.02;;;;;;;5.72;81.20;99752.59;5113097;28;20027;-74
2021/03/12 06:12:10;;;;;;;28.63;16.23;;;;;;;5.83;81.22;99748.56;5113120;28;20038;-74
2021/03/12 06:14:56;;;;;;;27.50;16.83;;;;;;;5.84;81.65;99731.75;5112724;28;20108;-75
2021/03/12 06:17:34;;;;;;;26.95;16.48;;;;;;;5.96;81.06;99728.53;5095473;28;20080;-70
2021/03/12 06:20:03;;;;;;;29.02;16.33;;;;;;;6.08;80.77;99721.75;5113280;28;20023;-75
2021/03/12 06:22:28;;;;;;;27.95;17.08;;;;;;;6.22;80.61;99735.19;5113210;28;20023;-76
2021/03/12 06:24:54;;;;;;;24.83;15.35;;;;;;;6.31;80.81;99748.81;5112833;28;20375;-71
2021/03/12 06:27:29;;;;;;;29.88;16.45;;;;;;;6.29;81.56;99757.78;5113025;28;20034;-72
2021/03/12 06:30:02;;;;;;;26.70;16.10;;;;;;;6.19;82.02;99744.13;5112903;28;20110;-74
2021/03/12 06:32:46;;;;;;;25.45;15.55;;;;;;;6.39;80.46;99761.66;5113041;28;20102;-75
2021/03/12 06:35:14;;;;;;;28.13;16.23;;;;;;;6.59;80.03;99766.81;5113158;28;20398;-74
2021/03/12 06:37:40;;;;;;;27.75;16.40;;;;;;;7.00;78.30;99770.88;5112561;28;20023;-76
2021/03/12 06:40:13;;;;;;;25.52;15.95;;;;;;;7.28;77.50;99779.06;5112874;28;20335;-75
2021/03/12 06:43:06;;;;;;;25.17;15.30;;;;;;;7.35;76.89;99772.50;5112680;28;20084;-74
2021/03/12 06:45:53;;;;;;;27.77;16.80;;;;;;;7.27;77.36;99758.78;5112667;28;20027;-82
2021/03/12 06:48:22;;;;;;;27.23;16.17;;;;;;;7.27;77.65;99780.00;5112879;28;20046;-69
2021/03/12 06:51:10;;;;;;;27.10;15.80;;;;;;;7.34;78.67;99781.41;5113489;28;20023;-71
2021/03/12 06:53:40;;;;;;;24.30;15.38;;;;;;;7.35;78.29;99785.75;5116825;28;20382;-71
2021/03/12 06:56:11;;;;;;;25.73;15.55;;;;;;;7.31;78.79;99786.84;5098524;28;20061;-71
2021/03/12 06:58:37;;;;;;;27.63;15.00;;;;;;;7.35;78.70;99787.56;5098152;28;20517;-74
2021/03/12 07:01:18;;;;;;;23.88;14.75;;;;;;;7.45;78.88;99780.81;5098539;28;20062;-75
2021/03/12 07:03:43;;;;;;;27.15;14.93;;;;;;;7.56;78.60;99786.38;5116364;28;20047;-74
2021/03/12 07:06:16;;;;;;;26.02;15.30;;;;;;;7.78;78.28;99794.00;5116752;28;20028;-72
2021/03/12 07:08:47;;;;;;;24.98;13.43;;;;;;;8.13;77.13;99788.50;5116413;28;20027;-71
2021/03/12 07:11:18;;;;;;;22.05;12.90;;;;;;;8.39;76.58;99787.00;5122346;27;20046;-70
2021/03/12 07:13:44;;;;;;;18.75;12.43;;;;;;;8.44;75.66;99783.16;5133586;27;20023;-71
2021/03/12 07:16:10;;;;;;;17.38;11.25;;;;;;;8.23;76.48;99784.38;5127156;27;20381;-73
2021/03/12 07:18:35;;;;;;;19.33;12.35;;;;;;;8.09;77.18;99787.81;5138672;27;20023;-71
2021/03/12 07:21:04;;;;;;;18.80;10.98;;;;;;;7.98;77.69;99775.16;5126364;27;20047;-73
2021/03/12 07:23:32;;;;;;;17.23;11.23;;;;;;;7.96;78.29;99785.00;5139978;27;20422;-74
2021/03/12 07:25:59;;;;;;;19.17;11.48;;;;;;;8.05;77.79;99780.97;5101918;27;20023;-72
2021/03/12 07:28:27;;;;;;;19.23;11.00;;;;;;;8.02;78.55;99782.00;5117596;27;20015;-71
2021/03/12 07:30:54;;;;;;;20.02;11.88;;;;;;;8.17;78.92;99792.69;5117693;27;20030;-72
2021/03/12 07:33:25;;;;;;;19.48;11.98;;;;;;;8.13;78.80;99776.09;5117639;27;20065;-79
2021/03/12 07:35:53;;;;;;;19.95;12.27;;;;;;;8.20;78.85;99765.94;5136102;27;20023;-78
2021/03/12 07:38:21;;;;;;;19.50;11.63;;;;;;;8.20;79.07;99776.56;5135883;27;20465;-77
2021/03/12 07:40:47;;;;;;;20.02;11.25;;;;;;;8.29;79.85;99802.59;5112504;28;20016;-77
2021/03/12 07:43:13;;;;;;;19.67;11.43;;;;;;;8.23;79.80;99793.19;5115885;27;20450;-77
2021/03/12 07:45:42;;;;;;;20.90;11.73;;;;;;;8.47;79.78;99814.84;5135237;27;20022;-75
2021/03/12 07:48:08;;;;;;;19.77;11.18;;;;;;;8.60;79.14;99823.84;5135637;27;20027;-75
2021/03/12 07:50:37;;;;;;;21.90;12.75;;;;;;;8.60;78.79;99831.81;5135748;27;20031;-76
2021/03/12 07:53:03;;;;;;;21.65;11.13;;;;;;;8.75;78.26;99827.38;5135575;27;20045;-73
2021/03/12 07:55:37;;;;;;;18.40;10.82;;;;;;;8.79;77.63;99838.72;5136062;27;20386;-74
2021/03/12 07:58:07;;;;;;;15.75;9.88;;;;;;;8.88;77.92;99839.03;5135547;27;20027;-78
2021/03/12 08:00:51;;;;;;;20.52;11.05;;;;;;;8.98;77.86;99860.63;5135629;27;20043;-77
2021/03/12 08:03:40;;;;;;;28.73;10.82;;;;;;;9.04;76.30;99846.91;5149292;27;20523;-69
2021/03/12 08:06:18;;;;;;;18.30;10.57;;;;;;;9.17;75.77;99847.91;5156219;27;20034;-73
2021/03/12 08:08:44;;;;;;;14.52;9.07;;;;;;;9.15;74.86;99825.84;5134882;27;20019;-76
2021/03/12 08:11:33;;;;;;;14.63;8.68;;;;;;;9.26;74.16;99822.50;5134920;27;20158;-76
2021/03/12 08:14:08;;;;;;;12.65;7.97;;;;;;;9.49;72.42;99850.41;5135162;27;20015;-76
2021/03/12 08:16:33;;;;;;;16.13;9.13;;;;;;;9.50;72.82;99853.91;5135295;27;20027;-72
2021/03/12 08:19:32;;;;;;;14.30;8.02;;;;;;;9.61;72.07;99854.09;5135204;27;20019;-74
2021/03/12 08:21:59;;;;;;;15.07;8.70;;;;;;;9.69;71.86;99852.66;5116912;27;20146;-74
2021/03/12 08:24:44;;;;;;;15.55;8.60;;;;;;;9.92;70.62;99871.66;5116924;27;20042;-76
2021/03/12 08:27:10;;;;;;;15.93;8.27;;;;;;;10.21;69.66;99870.66;5134951;27;20019;-76
2021/03/12 08:29:38;;;;;;;13.75;7.07;;;;;;;10.48;66.21;99864.50;5134845;27;20031;-74
2021/03/12 08:32:35;;;;;;;10.43;5.65;;;;;;;11.01;63.82;99866.28;5116300;27;20117;-74
2021/03/12 08:35:01;;;;;;;6.25;3.55;;;;;;;11.11;59.34;99850.47;5116333;27;20048;-75
2021/03/12 08:37:26;;;;;;;7.40;3.10;;;;;;;11.05;58.23;99880.25;5134780;27;20028;-73
2021/03/12 08:40:11;;;;;;;5.03;2.50;;;;;;;10.87;55.39;99875.19;5134557;27;20416;-74
2021/03/12 08:42:55;;;;;;;5.28;2.70;;;;;;;10.71;55.90;99894.97;5114551;27;20473;-77
2021/03/12 08:45:41;;;;;;;6.15;2.65;;;;;;;10.56;55.05;99878.19;5114301;28;20124;-77
2021/03/12 08:48:12;;;;;;;5.00;2.17;;;;;;;10.43;55.33;99886.16;5096075;28;20436;-76
2021/03/12 08:50:40;;;;;;;3.65;2.05;;;;;;;10.41;55.15;99887.19;5113956;28;20047;-73
2021/03/12 08:53:06;;;;;;;5.53;2.38;;;;;;;10.53;54.77;99886.41;5095511;28;20030;-76
2021/03/12 08:55:36;;;;;;;2.53;1.40;;;;;;;10.63;54.30;99895.53;5095505;28;20118;-77
2021/03/12 08:58:19;;;;;;;4.43;2.17;;;;;;;10.51;50.55;99872.31;5095126;28;20023;-77
2021/03/12 09:00:49;;;;;;;5.55;2.78;;;;;;;10.64;54.93;99870.56;5113885;28;20526;-76
2021/03/12 09:03:19;;;;;;;3.00;1.60;;;;;;;10.77;53.69;99863.44;5117177;28;20040;-77
2021/03/12 09:05:47;;;;;;;4.10;1.88;;;;;;;10.71;52.67;99852.31;5113768;28;20460;-75
2021/03/12 09:08:14;;;;;;;6.38;2.95;;;;;;;10.81;53.58;99891.63;5113628;28;20523;-74
2021/03/12 09:10:41;;;;;;;6.13;2.45;;;;;;;10.73;52.16;99872.59;5116960;27;20027;-74
2021/03/12 09:13:17;;;;;;;5.45;2.42;;;;;;;10.80;51.65;99878.38;5133740;27;20056;-77
2021/03/12 09:15:43;;;;;;;4.57;2.40;;;;;;;10.95;52.95;99869.34;5134162;27;20027;-77
2021/03/12 09:18:13;;;;;;;6.80;2.33;;;;;;;11.12;51.78;99868.19;5133902;27;20060;-73
2021/03/12 09:20:39;;;;;;;3.58;2.03;;;;;;;11.07;51.81;99881.84;5134021;27;20030;-72
2021/03/12 09:23:04;;;;;;;5.10;1.75;;;;;;;11.17;51.94;99871.41;5133703;27;20019;-71
2021/03/12 09:25:32;;;;;;;4.93;2.40;;;;;;;11.24;52.09;99886.03;5134172;27;20119;-71
2021/03/12 09:28:12;;;;;;;4.65;1.63;;;;;;;11.23;51.91;99868.31;5115522;27;20034;-73
2021/03/12 09:30:44;;;;;;;2.45;1.20;;;;;;;11.35;50.92;99878.13;5133827;27;20027;-74
2021/03/12 09:33:27;;;;;;;5.45;2.10;;;;;;;11.34;49.13;99865.75;5133608;27;20138;-74
2021/03/12 09:35:53;;;;;;;5.33;1.83;;;;;;;11.38;49.72;99899.28;5133726;27;20023;-74
2021/03/12 09:38:38;;;;;;;3.90;1.63;;;;;;;11.29;50.39;99891.94;5133608;27;20031;-74
2021/03/12 09:41:17;;;;;;;3.28;1.92;;;;;;;11.25;49.31;99886.91;5107686;28;20023;-76
2021/03/12 09:43:56;;;;;;;4.40;1.77;;;;;;;11.36;48.83;99882.50;5113018;28;20111;-75
2021/03/12 09:46:26;;;;;;;4.30;1.58;;;;;;;11.49;48.17;99908.41;5112908;28;20023;-76
2021/03/12 09:48:52;;;;;;;5.45;1.73;;;;;;;11.58;50.00;99897.94;5112938;28;20012;-75
2021/03/12 09:51:17;;;;;;;5.60;1.92;;;;;;;11.58;49.00;99897.03;5094463;28;20038;-74
2021/03/12 09:53:43;;;;;;;4.57;1.83;;;;;;;11.47;48.05;99903.13;5112806;28;20039;-73
2021/03/12 09:56:09;;;;;;;5.22;1.70;;;;;;;11.59;48.05;99893.44;5112627;28;20023;-71
2021/03/12 09:58:35;;;;;;;2.67;1.35;;;;;;;11.58;48.43;99891.69;5094846;28;20070;-75
2021/03/12 10:01:15;;;;;;;3.50;1.50;;;;;;;11.78;47.30;99893.84;5094816;28;20111;-74
2021/03/12 10:03:40;;;;;;;3.22;1.10;;;;;;;11.61;48.10;99884.34;5112247;28;20466;-77
2021/03/12 10:06:10;;;;;;;2.53;1.25;;;;;;;11.61;47.86;99873.66;5112853;28;20051;-75
2021/03/12 10:09:05;;;;;;;3.95;1.10;;;;;;;11.93;46.45;99899.94;5112784;28;20140;-76
2021/03/12 10:11:38;;;;;;;2.22;0.90;;;;;;;11.75;45.46;99915.41;5123246;27;20520;-74
2021/03/12 10:14:27;;;;;;;5.47;1.02;;;;;;;11.68;46.29;99903.47;5132986;27;20100;-71
2021/03/12 10:17:11;;;;;;;2.40;0.70;;;;;;;11.89;46.29;99902.00;5133034;27;20400;-72
2021/03/12 10:19:47;;;;;;;4.25;1.00;;;;;;;11.91;45.51;99924.09;5132997;27;20035;-71
2021/03/12 10:22:30;;;;;;;1.63;0.73;;;;;;;12.03;45.48;99917.03;5132060;27;20037;-70
2021/03/12 10:25:11;;;;;;;2.88;0.70;;;;;;;12.06;44.16;99914.13;5132813;27;20486;-70
2021/03/12 10:27:41;;;;;;;3.40;0.85;;;;;;;11.93;41.93;99918.66;5132958;28;20038;-71
2021/03/12 10:30:12;;;;;;;3.40;1.00;;;;;;;11.63;42.19;99911.81;5132942;27;20031;-70
2021/03/12 10:32:46;;;;;;;3.13;0.70;;;;;;;11.47;42.02;99922.69;5133657;27;20548;-72
2021/03/12 10:35:21;;;;;;;4.32;0.80;;;;;;;11.39;43.68;99922.38;5133418;27;20038;-70
2021/03/12 10:37:47;;;;;;;1.25;0.60;;;;;;;11.26;42.82;99915.31;5137432;27;20019;-71
2021/03/12 10:40:14;;;;;;;0.65;0.47;;;;;;;11.35;43.45;99918.19;5142532;28;20023;-74
2021/03/12 10:42:40;;;;;;;1.00;0.60;;;;;;;11.41;42.46;99925.78;5081796;28;20085;-72
2021/03/12 10:45:08;;;;;;;0.63;0.47;;;;;;;11.50;42.65;99902.09;5112223;28;20027;-71
2021/03/12 10:47:34;;;;;;;1.80;0.85;;;;;;;11.68;42.02;99896.31;5114560;28;20037;-72
2021/03/12 10:50:17;;;;;;;0.80;0.30;;;;;;;11.76;41.88;99890.41;5112209;28;20539;-75
2021/03/12 10:52:43;;;;;;;0.63;0.50;;;;;;;11.79;40.40;99927.63;5112118;28;20042;-74
2021/03/12 10:55:09;;;;;;;1.05;0.45;;;;;;;11.89;41.09;99890.44;5094008;28;20039;-72
2021/03/12 10:57:45;;;;;;;0.60;0.47;;;;;;;12.00;41.24;99899.41;5112074;28;20084;-71
2021/03/12 11:00:18;;;;;;;0.47;0.43;;;;;;;11.94;41.41;99894.47;5093873;28;20027;-72
2021/03/12 11:02:44;;;;;;;0.73;0.43;;;;;;;11.74;40.75;99876.31;5111880;28;20097;-74
2021/03/12 11:05:10;;;;;;;2.20;0.80;;;;;;;11.92;40.53;99898.25;5111955;28;20028;-75
2021/03/12 11:07:36;;;;;;;2.67;1.20;;;;;;;11.94;40.05;99893.63;5093680;28;20092;-76
2021/03/12 11:10:03;;;;;;;2.80;0.82;;;;;;;11.92;40.69;99885.72;5111995;28;20024;-73
2021/03/12 11:12:41;;;;;;;2.90;0.82;;;;;;;11.97;41.06;99885.41;5111705;28;20019;-72
2021/03/12 11:15:09;;;;;;;3.22;0.70;;;;;;;11.92;41.74;99885.72;5111914;28;20111;-73
2021/03/12 11:17:37;;;;;;;2.13;0.77;;;;;;;11.90;41.22;99887.66;5111958;28;20265;-73
2021/03/12 11:20:06;;;;;;;3.75;1.27;;;;;;;11.92;41.47;99885.72;5122587;27;20392;-75
2021/03/12 11:22:33;;;;;;;2.15;0.90;;;;;;;12.09;42.18;99881.84;5132102;27;20034;-73
2021/03/12 11:24:59;;;;;;;2.15;1.15;;;;;;;11.92;41.70;99847.47;5114271;28;20035;-70
2021/03/12 11:27:26;;;;;;;1.33;0.80;;;;;;;12.15;41.36;99889.41;5132371;27;20031;-72
2021/03/12 11:29:52;;;;;;;1.92;1.10;;;;;;;11.84;42.01;99845.31;5113650;28;20026;-72
2021/03/12 11:32:18;;;;;;;1.15;0.75;;;;;;;12.38;41.83;99885.06;5114033;28;20079;-71
2021/03/12 11:34:43;;;;;;;0.73;0.55;;;;;;;11.92;41.89;99883.06;5133274;27;20056;-74
2021/03/12 11:37:09;;;;;;;0.95;0.70;;;;;;;11.84;43.44;99879.22;5118194;27;20023;-77